Time;durP1;ratioP1;P1;durP2;ratioP2;P2;SDS_P1;SDS_P2;PMS_P1;PMS_P2;Temp;Humidity;BMP_temperature;BMP_pressure;BME280_temperature;BME280_humidity;BME280_pressure;Samples;Min_cycle;Max_cycle;Signal;HPM_P1;HPM_P2
2022/09/10 00:08:56;;;;;;;0.60;0.60;;;;;;;19.52;99.10;100597.84;20793860;28;20395;-76
2022/09/10 00:18:59;;;;;;;1.63;0.52;;;;;;;19.42;98.86;100579.00;20794055;28;20053;-76
2022/09/10 00:29:01;;;;;;;0.90;0.52;;;;;;;19.51;98.86;100595.28;20792706;28;20585;-76
2022/09/10 00:39:06;;;;;;;1.55;0.75;;;;;;;19.27;98.66;100565.19;20791113;28;20057;-76
2022/09/10 00:49:12;;;;;;;;;;;;;;;19.50;98.77;100589.03;20794683;28;20072;-76
2022/09/10 00:59:16;;;;;;;0.77;0.50;;;;;;;19.46;98.54;100606.56;20792277;28;19921;-76
2022/09/10 01:09:19;;;;;;;0.73;0.73;;;;;;;19.48;98.49;100604.53;20776143;28;20136;-76
2022/09/10 01:19:56;;;;;;;0.55;0.55;;;;;;;19.48;98.46;100604.53;20798640;28;20046;-76
2022/09/10 01:30:11;;;;;;;0.98;0.68;;;;;;;19.48;98.37;100609.09;20723374;28;20050;-76
2022/09/10 01:40:16;;;;;;;0.60;0.60;;;;;;;19.47;98.31;100616.34;20725717;28;20131;-76
2022/09/10 01:50:43;;;;;;;1.75;0.80;;;;;;;19.47;98.16;100607.38;20707521;28;20042;-75
2022/09/10 02:00:52;;;;;;;0.95;0.70;;;;;;;19.46;98.15;100611.94;20722109;28;20076;-76
2022/09/10 02:10:59;;;;;;;0.80;0.70;;;;;;;19.46;98.03;100611.94;20723085;28;20042;-76
2022/09/10 02:21:05;;;;;;;0.60;0.60;;;;;;;19.37;97.94;100604.75;20720369;28;20446;-76
2022/09/10 02:31:08;;;;;;;1.13;0.68;;;;;;;19.11;97.72;100565.03;20701634;28;20414;-76
2022/09/10 02:41:10;;;;;;;1.30;0.80;;;;;;;19.45;97.70;100625.59;20716753;28;20060;-76
2022/09/10 02:51:11;;;;;;;1.13;0.80;;;;;;;19.44;97.64;100619.31;20715663;28;20415;-76
2022/09/10 03:01:18;;;;;;;0.73;0.70;;;;;;;19.44;97.55;100611.22;20698116;28;20042;-76
2022/09/10 03:11:27;;;;;;;0.85;0.80;;;;;;;19.36;97.58;100597.66;20697505;28;20046;-76
2022/09/10 03:21:33;;;;;;;1.33;0.60;;;;;;;19.42;97.44;100611.41;20780274;28;20405;-76
2022/09/10 03:31:35;;;;;;;1.08;0.70;;;;;;;19.42;97.35;100613.22;20767307;28;20051;-75
2022/09/10 03:41:37;;;;;;;0.70;0.70;;;;;;;19.43;97.49;100612.22;20779973;28;20054;-76
2022/09/10 03:51:38;;;;;;;1.75;1.00;;;;;;;19.42;97.21;100615.94;20795605;28;20049;-76
2022/09/10 04:01:41;;;;;;;0.75;0.70;;;;;;;19.33;97.32;100604.22;20778581;28;20046;-76
2022/09/10 04:11:43;;;;;;;0.95;0.63;;;;;;;19.41;97.33;100620.50;20794503;28;20048;-76
2022/09/10 04:21:45;;;;;;;0.93;0.80;;;;;;;19.33;97.07;100601.53;20792875;28;20059;-76
2022/09/10 04:31:47;;;;;;;0.88;0.80;;;;;;;19.23;97.06;100596.19;20793906;28;20133;-76
2022/09/10 04:41:51;;;;;;;0.93;0.83;;;;;;;19.39;97.11;100633.31;20707513;28;20066;-76
2022/09/10 04:51:52;;;;;;;0.93;0.85;;;;;;;19.33;96.88;100627.66;20715261;28;20076;-76
2022/09/10 05:01:54;;;;;;;0.90;0.90;;;;;;;19.39;96.91;100644.09;20727018;28;20128;-76
2022/09/10 05:11:56;;;;;;;1.45;0.90;;;;;;;19.33;97.07;100622.25;20725453;28;20153;-76
2022/09/10 05:21:58;;;;;;;1.58;0.88;;;;;;;19.38;97.01;100633.44;20708478;28;20049;-76
2022/09/10 05:32:00;;;;;;;1.33;1.10;;;;;;;19.38;96.91;100636.13;20724338;28;20410;-76
2022/09/10 05:42:02;;;;;;;1.50;1.40;;;;;;;19.37;96.70;100659.59;20691864;28;20117;-76
2022/09/10 05:52:05;;;;;;;1.67;1.30;;;;;;;19.37;96.92;100656.03;20719877;28;20053;-75
2022/09/10 06:02:14;;;;;;;3.80;1.60;;;;;;;19.40;96.90;100677.31;20746374;28;20410;-76
2022/09/10 06:12:17;;;;;;;2.85;1.42;;;;;;;19.40;96.76;100671.94;20690715;28;20056;-75
2022/09/10 06:22:19;;;;;;;3.75;1.90;;;;;;;19.47;97.98;100689.25;20647505;28;20038;-75
2022/09/10 06:32:24;;;;;;;4.63;1.80;;;;;;;19.51;99.48;100711.38;20764206;28;20044;-76
2022/09/10 06:42:26;;;;;;;3.30;2.05;;;;;;;19.46;100.00;100701.03;20689146;28;20309;-77
2022/09/10 06:52:40;;;;;;;14.20;3.30;;;;;;;19.58;100.00;100717.84;20680732;28;20073;-77
2022/09/10 07:02:44;;;;;;;12.83;3.80;;;;;;;19.58;100.00;100714.31;20679822;28;20072;-76
2022/09/10 07:12:46;;;;;;;6.25;3.83;;;;;;;19.66;100.00;100730.59;20682754;28;20488;-75
2022/09/10 07:22:55;;;;;;;3.83;2.80;;;;;;;19.59;100.00;100737.63;20708897;28;20056;-76
2022/09/10 07:32:58;;;;;;;7.53;2.80;;;;;;;19.65;100.00;100751.34;20696418;28;20112;-76
2022/09/10 07:43:02;;;;;;;6.05;3.25;;;;;;;19.65;100.00;100739.72;20694507;28;20490;-76
2022/09/10 07:53:04;;;;;;;5.10;2.53;;;;;;;19.66;100.00;100747.66;20666057;28;20157;-75
2022/09/10 08:03:06;;;;;;;4.20;2.25;;;;;;;19.68;100.00;100763.72;20661243;28;20056;-75
2022/09/10 08:13:08;;;;;;;4.18;2.58;;;;;;;19.68;100.00;100767.28;20703755;28;20693;-75
2022/09/10 08:23:10;;;;;;;6.18;2.33;;;;;;;19.69;100.00;100779.78;20641354;28;20081;-75
2022/09/10 08:33:12;;;;;;;4.30;2.28;;;;;;;19.69;100.00;100790.59;20680542;28;20046;-75
2022/09/10 08:43:15;;;;;;;3.95;2.45;;;;;;;19.51;100.00;100770.75;20693999;28;20133;-75
2022/09/10 08:53:24;;;;;;;4.43;2.45;;;;;;;19.71;100.00;100804.78;20687159;28;20140;-75
2022/09/10 09:03:37;;;;;;;3.83;2.50;;;;;;;19.72;100.00;100832.63;20707288;28;20042;-74
2022/09/10 09:14:47;;;;;;;4.38;2.50;;;;;;;19.71;100.00;100830.94;20695154;28;20490;-75
2022/09/10 09:24:56;;;;;;;3.42;2.47;;;;;;;19.59;100.00;100813.22;20598177;28;20096;-75
2022/09/10 09:35:22;;;;;;;3.67;2.70;;;;;;;19.71;100.00;100841.72;20674998;28;20407;-75
2022/09/10 09:45:36;;;;;;;3.15;2.30;;;;;;;19.73;100.00;100847.00;20704531;28;20057;-75
2022/09/10 09:55:44;;;;;;;3.28;2.42;;;;;;;19.71;100.00;100847.13;20608754;28;20503;-74
2022/09/10 10:05:46;;;;;;;2.90;2.53;;;;;;;19.70;99.97;100840.03;20705302;28;20049;-75
2022/09/10 10:15:49;;;;;;;2.65;2.25;;;;;;;19.75;99.52;100835.03;20741554;28;20387;-75
2022/09/10 10:25:51;;;;;;;3.20;2.50;;;;;;;19.76;98.91;100839.44;20784859;28;20059;-75
2022/09/10 10:36:05;;;;;;;2.58;2.10;;;;;;;19.78;98.52;100836.59;20801339;28;20493;-75
2022/09/10 10:46:35;;;;;;;2.35;2.15;;;;;;;18.76;97.83;100678.03;20780317;28;20045;-75
2022/09/10 10:56:40;;;;;;;2.55;2.35;;;;;;;19.79;97.73;100847.22;20685261;28;20054;-75
2022/09/10 11:06:45;;;;;;;3.63;2.25;;;;;;;19.80;97.61;100846.22;20723988;28;20054;-75
2022/09/10 11:16:58;;;;;;;3.95;2.22;;;;;;;19.81;97.38;100841.69;20701386;28;20490;-75
2022/09/10 11:27:08;;;;;;;3.05;2.17;;;;;;;19.82;97.19;100840.69;20711263;28;20514;-75
2022/09/10 11:37:39;;;;;;;2.78;2.35;;;;;;;19.82;97.04;100832.59;20722655;28;20499;-76
2022/09/10 11:47:45;;;;;;;2.05;1.80;;;;;;;19.66;97.02;100817.88;20702483;28;20510;-76
2022/09/10 11:57:55;;;;;;;4.35;2.13;;;;;;;19.82;97.36;100849.63;20678939;28;20047;-76
2022/09/10 12:07:57;;;;;;;2.45;2.10;;;;;;;19.82;97.60;100848.78;20686807;28;20053;-74
2022/09/10 12:17:58;;;;;;;5.07;3.28;;;;;;;19.83;98.24;100864.00;20688722;28;20143;-75
2022/09/10 12:28:06;;;;;;;5.93;3.08;;;;;;;19.86;99.94;100859.13;20687158;28;20581;-74
2022/09/10 12:38:47;;;;;;;9.35;3.50;;;;;;;19.93;100.00;100867.53;20673670;28;20050;-74
2022/09/10 12:48:54;;;;;;;9.52;3.25;;;;;;;20.00;100.00;100875.88;20688600;28;20088;-75
2022/09/10 12:59:19;;;;;;;4.32;2.40;;;;;;;20.02;100.00;100871.19;20697263;28;20051;-74
2022/09/10 13:09:22;;;;;;;3.88;2.10;;;;;;;20.04;100.00;100871.88;20696328;28;20195;-75
2022/09/10 13:19:24;;;;;;;3.65;2.15;;;;;;;20.04;100.00;100876.41;20697825;28;20050;-74
2022/09/10 13:29:32;;;;;;;5.32;2.78;;;;;;;20.04;100.00;100885.38;20706829;28;20049;-74
2022/09/10 13:39:53;;;;;;;6.30;2.35;;;;;;;20.03;100.00;100878.28;20697277;28;20052;-74
2022/09/10 13:50:24;;;;;;;3.35;2.30;;;;;;;20.00;100.00;100890.22;20703738;28;20077;-74
2022/09/10 14:00:34;;;;;;;3.25;1.90;;;;;;;19.86;100.00;100859.13;20689571;28;20519;-74
2022/09/10 14:10:49;;;;;;;4.78;2.03;;;;;;;19.72;100.00;100856.94;20720978;28;20056;-74
2022/09/10 14:20:50;;;;;;;3.37;1.90;;;;;;;19.90;100.00;100888.56;20723627;28;20050;-74
2022/09/10 14:31:21;;;;;;;2.92;1.73;;;;;;;19.89;100.00;100897.69;20720654;28;20494;-74
2022/09/10 14:41:24;;;;;;;4.63;1.80;;;;;;;19.85;100.00;100905.22;20720601;28;20430;-74
2022/09/10 14:51:26;;;;;;;3.45;1.73;;;;;;;19.83;100.00;100918.03;20721307;28;20430;-75
2022/09/10 15:01:28;;;;;;;4.82;2.00;;;;;;;19.74;100.00;100902.72;20718308;28;20100;-75
2022/09/10 15:11:29;;;;;;;2.63;1.90;;;;;;;19.80;100.00;100921.88;20717795;28;20082;-75
2022/09/10 15:21:31;;;;;;;4.30;2.15;;;;;;;19.56;100.00;100890.84;20716669;28;20050;-75
2022/09/10 15:31:33;;;;;;;3.42;2.05;;;;;;;19.78;100.00;100928.44;20716480;28;20050;-74
2022/09/10 15:41:40;;;;;;;2.30;1.40;;;;;;;19.51;100.00;100892.28;20717242;28;20279;-75
2022/09/10 15:51:41;;;;;;;4.72;2.10;;;;;;;19.25;100.00;100864.06;20716359;28;20053;-74
2022/09/10 16:01:43;;;;;;;4.00;2.00;;;;;;;19.76;100.00;100958.28;20714282;28;20046;-74
2022/09/10 16:11:44;;;;;;;3.33;2.20;;;;;;;19.74;100.00;100959.44;20715444;28;20056;-74
2022/09/10 16:21:46;;;;;;;4.72;1.95;;;;;;;19.74;100.00;100962.97;20713456;28;20077;-75
2022/09/10 16:31:47;;;;;;;2.83;1.73;;;;;;;19.72;100.00;100986.59;20713188;28;20046;-75
2022/09/10 16:41:49;;;;;;;2.88;2.28;;;;;;;19.69;100.00;100990.44;20712733;28;20050;-75
2022/09/10 16:51:51;;;;;;;3.30;1.88;;;;;;;19.68;100.00;101012.19;20722961;28;20521;-75
2022/09/10 17:01:53;;;;;;;2.83;1.60;;;;;;;19.49;100.00;100989.63;20729575;28;20050;-75
2022/09/10 17:11:55;;;;;;;2.35;1.60;;;;;;;19.69;100.00;101032.78;20727188;28;20057;-75
2022/09/10 17:21:56;;;;;;;2.45;1.50;;;;;;;19.69;100.00;101036.38;20726861;28;20059;-75
2022/09/10 17:31:58;;;;;;;2.13;1.70;;;;;;;19.65;100.00;101034.09;20727773;28;20053;-75
2022/09/10 17:41:59;;;;;;;3.58;1.75;;;;;;;19.67;100.00;101051.88;20726181;28;20056;-74
2022/09/10 17:52:03;;;;;;;3.40;1.52;;;;;;;19.66;100.00;101074.44;20725508;28;20061;-74
2022/09/10 18:02:05;;;;;;;2.70;1.70;;;;;;;19.49;100.00;101048.16;20723259;28;20065;-74
2022/09/10 18:12:07;;;;;;;1.85;1.58;;;;;;;19.66;100.00;101084.41;20722326;28;20521;-74
2022/09/10 18:22:08;;;;;;;1.63;1.50;;;;;;;19.65;100.00;101099.75;20706378;28;20042;-75
2022/09/10 18:32:10;;;;;;;2.17;1.58;;;;;;;19.63;100.00;101111.69;20720961;28;20042;-75
2022/09/10 18:42:11;;;;;;;3.15;2.10;;;;;;;19.44;100.00;101097.19;20721960;28;20084;-75
2022/09/10 18:52:13;;;;;;;1.95;1.40;;;;;;;19.62;100.00;101161.31;20720925;28;20096;-74
2022/09/10 19:02:16;;;;;;;2.28;1.35;;;;;;;19.62;100.00;101172.09;20720348;28;20383;-74
2022/09/10 19:12:18;;;;;;;2.65;1.92;;;;;;;19.61;100.00;101189.31;20719491;28;20050;-74
2022/09/10 19:22:19;;;;;;;1.58;1.48;;;;;;;19.47;100.00;101186.03;20700957;28;20045;-75
2022/09/10 19:32:21;;;;;;;2.22;1.60;;;;;;;19.60;100.00;101223.56;20718538;28;20049;-75
2022/09/10 19:42:23;;;;;;;2.28;1.60;;;;;;;19.60;100.00;101233.50;20715764;28;20049;-75
2022/09/10 19:52:25;;;;;;;1.88;1.60;;;;;;;19.58;100.00;101225.53;20714717;28;20095;-75
2022/09/10 20:02:26;;;;;;;2.65;1.50;;;;;;;19.58;100.00;101241.75;20714692;28;20085;-75
2022/09/10 20:12:28;;;;;;;2.38;1.63;;;;;;;19.57;100.00;101240.03;20714429;28;20133;-75
2022/09/10 20:22:30;;;;;;;1.83;1.60;;;;;;;19.57;100.00;101250.84;20696612;28;20053;-75
2022/09/10 20:32:38;;;;;;;1.50;1.40;;;;;;;19.56;100.00;101254.53;20714860;28;20518;-75
2022/09/10 20:42:40;;;;;;;1.45;1.30;;;;;;;19.55;100.00;101261.78;20714661;28;20056;-74
2022/09/10 20:52:42;;;;;;;1.83;1.40;;;;;;;19.51;100.00;101273.88;20713826;28;20103;-74
2022/09/10 21:02:45;;;;;;;2.08;1.60;;;;;;;19.53;100.00;101279.97;20712095;28;20038;-75
2022/09/10 21:12:47;;;;;;;2.47;1.30;;;;;;;19.37;100.00;101261.59;20711222;28;20042;-75
2022/09/10 21:22:49;;;;;;;1.63;1.52;;;;;;;19.29;100.00;101256.03;20712295;28;20503;-74
2022/09/10 21:32:50;;;;;;;1.83;1.30;;;;;;;19.54;100.00;101291.63;20711390;28;20057;-74
2022/09/10 21:42:52;;;;;;;1.55;1.35;;;;;;;19.52;100.00;101297.19;20726793;28;20054;-75
2022/09/10 21:52:53;;;;;;;2.00;1.33;;;;;;;19.52;100.00;101297.19;20725250;28;20054;-75
2022/09/10 22:02:55;;;;;;;1.80;1.70;;;;;;;19.46;100.00;101310.38;20724475;28;20046;-75
2022/09/10 22:12:57;;;;;;;1.20;1.10;;;;;;;19.51;100.00;101308.97;20723105;28;20052;-74
2022/09/10 22:22:58;;;;;;;1.55;1.40;;;;;;;19.50;100.00;101306.41;20721917;28;20081;-74
2022/09/10 22:33:00;;;;;;;1.85;1.30;;;;;;;19.50;100.00;101317.19;20722983;28;20152;-77
2022/09/10 22:43:01;;;;;;;1.48;1.20;;;;;;;19.49;100.00;101324.47;20720828;28;20054;-74
2022/09/10 22:53:03;;;;;;;1.85;1.42;;;;;;;19.49;100.00;101339.78;20720114;28;20414;-74
2022/09/10 23:03:04;;;;;;;1.45;1.35;;;;;;;19.47;100.00;101350.75;20720175;28;20057;-75
2022/09/10 23:13:06;;;;;;;1.50;1.23;;;;;;;19.47;100.00;101355.28;20719729;28;20060;-74
2022/09/10 23:23:07;;;;;;;1.58;1.42;;;;;;;19.47;100.00;101375.03;20718966;28;20103;-75
2022/09/10 23:33:09;;;;;;;1.60;1.50;;;;;;;19.46;100.00;101377.88;20716630;28;20046;-74
2022/09/10 23:43:11;;;;;;;1.60;1.50;;;;;;;19.46;100.00;101383.25;20715877;28;20046;-74
2022/09/10 23:53:13;;;;;;;1.45;1.30;;;;;;;19.03;100.00;101323.13;20714958;28;20077;-74
